sensor_id;sensor_type;location;lat;lon;timestamp;pressure;altitude;pressure_sealevel;temperature;humidity
75938;BME280;64615;32.062;34.834;2023-11-19T00:02:23;100328.41;;;25.07;55.65
75938;BME280;64615;32.062;34.834;2023-11-19T00:04:49;100334.66;;;25.07;55.24
75938;BME280;64615;32.062;34.834;2023-11-19T00:07:15;100329.75;;;25.09;54.85
75938;BME280;64615;32.062;34.834;2023-11-19T00:09:41;100314.22;;;25.10;55.23
75938;BME280;64615;32.062;34.834;2023-11-19T00:12:07;100316.94;;;25.10;54.92
75938;BME280;64615;32.062;34.834;2023-11-19T00:14:35;100312.59;;;25.09;54.78
75938;BME280;64615;32.062;34.834;2023-11-19T00:17:01;100316.72;;;25.06;55.24
75938;BME280;64615;32.062;34.834;2023-11-19T00:19:27;100324.06;;;25.06;55.22
75938;BME280;64615;32.062;34.834;2023-11-19T00:21:53;100321.34;;;25.06;54.99
75938;BME280;64615;32.062;34.834;2023-11-19T00:24:18;100328.69;;;25.05;55.30
75938;BME280;64615;32.062;34.834;2023-11-19T00:26:45;100328.97;;;25.04;54.88
75938;BME280;64615;32.062;34.834;2023-11-19T00:29:12;100328.44;;;25.02;54.84
75938;BME280;64615;32.062;34.834;2023-11-19T00:31:39;100335.81;;;25.01;55.00
75938;BME280;64615;32.062;34.834;2023-11-19T00:34:04;100327.63;;;25.01;55.16
75938;BME280;64615;32.062;34.834;2023-11-19T00:36:31;100327.91;;;25.00;55.29
75938;BME280;64615;32.062;34.834;2023-11-19T00:38:57;100326.28;;;24.99;54.76
75938;BME280;64615;32.062;34.834;2023-11-19T00:41:23;100319.19;;;24.98;54.86
75938;BME280;64615;32.062;34.834;2023-11-19T00:43:48;100314.84;;;24.97;54.83
75938;BME280;64615;32.062;34.834;2023-11-19T00:46:14;100316.78;;;24.96;54.84
75938;BME280;64615;32.062;34.834;2023-11-19T00:48:40;100307.78;;;24.96;54.85
75938;BME280;64615;32.062;34.834;2023-11-19T00:51:06;100298.00;;;24.95;54.79
75938;BME280;64615;32.062;34.834;2023-11-19T00:53:32;100299.09;;;24.94;54.50
75938;BME280;64615;32.062;34.834;2023-11-19T00:55:59;100298.28;;;24.93;55.15
75938;BME280;64615;32.062;34.834;2023-11-19T00:58:25;100299.91;;;24.94;54.67
75938;BME280;64615;32.062;34.834;2023-11-19T01:00:51;100296.38;;;24.94;54.73
75938;BME280;64615;32.062;34.834;2023-11-19T01:03:17;100293.38;;;24.95;54.96
75938;BME280;64615;32.062;34.834;2023-11-19T01:05:43;100284.09;;;24.96;54.45
75938;BME280;64615;32.062;34.834;2023-11-19T01:08:09;100277.84;;;24.96;54.38
75938;BME280;64615;32.062;34.834;2023-11-19T01:10:37;100272.91;;;24.98;54.33
75938;BME280;64615;32.062;34.834;2023-11-19T01:13:02;100266.66;;;24.97;54.41
75938;BME280;64615;32.062;34.834;2023-11-19T01:15:31;100265.56;;;24.98;54.25
75938;BME280;64615;32.062;34.834;2023-11-19T01:17:57;100250.63;;;24.96;54.16
75938;BME280;64615;32.062;34.834;2023-11-19T01:20:23;100244.03;;;24.97;53.92
75938;BME280;64615;32.062;34.834;2023-11-19T01:22:49;100246.25;;;24.95;53.81
75938;BME280;64615;32.062;34.834;2023-11-19T01:25:15;100233.75;;;24.94;54.06
75938;BME280;64615;32.062;34.834;2023-11-19T01:27:40;100234.00;;;24.92;53.78
75938;BME280;64615;32.062;34.834;2023-11-19T01:30:06;100231.59;;;24.91;53.85
75938;BME280;64615;32.062;34.834;2023-11-19T01:32:35;100223.44;;;24.91;53.69
75938;BME280;64615;32.062;34.834;2023-11-19T01:35:03;100217.97;;;24.91;53.61
75938;BME280;64615;32.062;34.834;2023-11-19T01:37:28;100212.81;;;24.89;54.05
75938;BME280;64615;32.062;34.834;2023-11-19T01:39:54;100219.34;;;24.88;53.47
75938;BME280;64615;32.062;34.834;2023-11-19T01:42:20;100216.88;;;24.86;54.08
75938;BME280;64615;32.062;34.834;2023-11-19T01:44:57;100206.28;;;24.85;53.85
75938;BME280;64615;32.062;34.834;2023-11-19T01:47:23;100203.56;;;24.85;53.49
75938;BME280;64615;32.062;34.834;2023-11-19T01:49:50;100203.84;;;24.83;53.31
75938;BME280;64615;32.062;34.834;2023-11-19T01:52:16;100206.03;;;24.81;53.23
75938;BME280;64615;32.062;34.834;2023-11-19T01:54:42;100192.41;;;24.81;53.73
75938;BME280;64615;32.062;34.834;2023-11-19T01:57:08;100175.25;;;24.81;53.53
75938;BME280;64615;32.062;34.834;2023-11-19T01:59:34;100169.03;;;24.80;53.56
75938;BME280;64615;32.062;34.834;2023-11-19T02:02:00;100176.91;;;24.82;53.19
75938;BME280;64615;32.062;34.834;2023-11-19T02:04:26;100176.09;;;24.81;53.16
75938;BME280;64615;32.062;34.834;2023-11-19T02:06:54;100166.31;;;24.80;53.11
75938;BME280;64615;32.062;34.834;2023-11-19T02:09:21;100158.16;;;24.80;52.79
75938;BME280;64615;32.062;34.834;2023-11-19T02:11:47;100151.56;;;24.81;52.94
75938;BME280;64615;32.062;34.834;2023-11-19T02:14:17;100153.47;;;24.81;53.17
75938;BME280;64615;32.062;34.834;2023-11-19T02:16:43;100162.47;;;24.81;52.92
75938;BME280;64615;32.062;34.834;2023-11-19T02:19:09;100171.44;;;24.82;52.75
75938;BME280;64615;32.062;34.834;2023-11-19T02:21:37;100164.09;;;24.82;52.72
75938;BME280;64615;32.062;34.834;2023-11-19T02:24:08;100176.09;;;24.81;52.94
75938;BME280;64615;32.062;34.834;2023-11-19T02:26:45;100179.63;;;24.82;52.18
75938;BME280;64615;32.062;34.834;2023-11-19T02:29:13;100190.81;;;24.80;52.77
75938;BME280;64615;32.062;34.834;2023-11-19T02:31:39;100198.44;;;24.78;52.45
75938;BME280;64615;32.062;34.834;2023-11-19T02:34:04;100197.63;;;24.78;52.15
75938;BME280;64615;32.062;34.834;2023-11-19T02:36:31;100187.00;;;24.76;52.36
75938;BME280;64615;32.062;34.834;2023-11-19T02:38:58;100193.59;;;24.75;52.27
75938;BME280;64615;32.062;34.834;2023-11-19T02:41:23;100183.78;;;24.74;52.44
75938;BME280;64615;32.062;34.834;2023-11-19T02:43:49;100192.78;;;24.75;52.36
75938;BME280;64615;32.062;34.834;2023-11-19T02:46:15;100186.50;;;24.74;52.35
75938;BME280;64615;32.062;34.834;2023-11-19T02:48:43;100184.88;;;24.73;52.33
75938;BME280;64615;32.062;34.834;2023-11-19T02:51:09;100168.53;;;24.73;52.46
75938;BME280;64615;32.062;34.834;2023-11-19T02:53:36;100159.03;;;24.71;52.32
75938;BME280;64615;32.062;34.834;2023-11-19T02:56:05;100164.19;;;24.72;52.47
75938;BME280;64615;32.062;34.834;2023-11-19T02:58:44;100155.53;;;24.70;51.87
75938;BME280;64615;32.062;34.834;2023-11-19T03:01:11;100169.13;;;24.70;51.77
75938;BME280;64615;32.062;34.834;2023-11-19T03:03:57;100164.78;;;24.69;51.90
75938;BME280;64615;32.062;34.834;2023-11-19T03:06:23;100174.03;;;24.68;51.83
75938;BME280;64615;32.062;34.834;2023-11-19T03:08:49;100184.66;;;24.70;51.58
75938;BME280;64615;32.062;34.834;2023-11-19T03:11:15;100181.38;;;24.68;51.13
75938;BME280;64615;32.062;34.834;2023-11-19T03:13:41;100168.34;;;24.65;51.23
75938;BME280;64615;32.062;34.834;2023-11-19T03:16:07;100164.50;;;24.66;51.70
75938;BME280;64615;32.062;34.834;2023-11-19T03:18:33;100166.72;;;24.64;51.44
75938;BME280;64615;32.062;34.834;2023-11-19T03:20:58;100150.69;;;24.62;51.45
75938;BME280;64615;32.062;34.834;2023-11-19T03:23:24;100147.41;;;24.60;51.29
75938;BME280;64615;32.062;34.834;2023-11-19T03:25:53;100152.06;;;24.60;50.77
75938;BME280;64615;32.062;34.834;2023-11-19T03:28:19;100147.41;;;24.60;50.80
75938;BME280;64615;32.062;34.834;2023-11-19T03:30:45;100136.25;;;24.62;51.23
75938;BME280;64615;32.062;34.834;2023-11-19T03:33:10;100151.75;;;24.61;50.67
75938;BME280;64615;32.062;34.834;2023-11-19T03:35:36;100152.56;;;24.62;50.62
75938;BME280;64615;32.062;34.834;2023-11-19T03:38:02;100147.41;;;24.60;50.72
75938;BME280;64615;32.062;34.834;2023-11-19T03:40:28;100143.91;;;24.60;50.77
75938;BME280;64615;32.062;34.834;2023-11-19T03:42:56;100144.19;;;24.58;50.61
75938;BME280;64615;32.062;34.834;2023-11-19T03:45:22;100148.81;;;24.58;50.88
75938;BME280;64615;32.062;34.834;2023-11-19T03:47:48;100136.56;;;24.55;51.19
75938;BME280;64615;32.062;34.834;2023-11-19T03:50:15;100143.66;;;24.56;50.48
75938;BME280;64615;32.062;34.834;2023-11-19T03:52:42;100149.41;;;24.55;50.17
75938;BME280;64615;32.062;34.834;2023-11-19T03:55:07;100134.16;;;24.54;50.23
75938;BME280;64615;32.062;34.834;2023-11-19T03:57:34;100149.66;;;24.53;50.34
75938;BME280;64615;32.062;34.834;2023-11-19T04:00:00;100161.38;;;24.54;50.75
75938;BME280;64615;32.062;34.834;2023-11-19T04:02:32;100149.94;;;24.52;50.39
75938;BME280;64615;32.062;34.834;2023-11-19T04:04:58;100148.63;;;24.49;50.25
75938;BME280;64615;32.062;34.834;2023-11-19T04:07:24;100135.28;;;24.47;50.47
75938;BME280;64615;32.062;34.834;2023-11-19T04:09:49;100120.06;;;24.46;49.46
75938;BME280;64615;32.062;34.834;2023-11-19T04:12:15;100117.63;;;24.45;50.27
75938;BME280;64615;32.062;34.834;2023-11-19T04:14:41;100115.47;;;24.42;49.79
75938;BME280;64615;32.062;34.834;2023-11-19T04:17:06;100099.97;;;24.42;50.03
75938;BME280;64615;32.062;34.834;2023-11-19T04:19:32;100092.34;;;24.39;49.39
75938;BME280;64615;32.062;34.834;2023-11-19T04:21:58;100089.34;;;24.41;49.92
75938;BME280;64615;32.062;34.834;2023-11-19T04:24:24;100086.41;;;24.37;49.53
75938;BME280;64615;32.062;34.834;2023-11-19T04:26:49;100066.53;;;24.37;49.58
75938;BME280;64615;32.062;34.834;2023-11-19T04:29:16;100074.44;;;24.38;49.67
75938;BME280;64615;32.062;34.834;2023-11-19T04:31:43;100038.25;;;24.38;49.87
75938;BME280;64615;32.062;34.834;2023-11-19T04:34:12;100034.44;;;24.39;49.57
75938;BME280;64615;32.062;34.834;2023-11-19T04:36:38;100065.41;;;24.43;49.76
75938;BME280;64615;32.062;34.834;2023-11-19T04:39:04;100049.59;;;24.45;50.49
75938;BME280;64615;32.062;34.834;2023-11-19T04:41:48;100043.59;;;24.48;50.28
75938;BME280;64615;32.062;34.834;2023-11-19T04:44:18;100056.09;;;24.49;50.52
75938;BME280;64615;32.062;34.834;2023-11-19T04:46:44;100057.44;;;24.52;50.17
75938;BME280;64615;32.062;34.834;2023-11-19T04:49:11;100055.53;;;24.52;50.34
75938;BME280;64615;32.062;34.834;2023-11-19T04:51:40;100066.13;;;24.54;50.47
75938;BME280;64615;32.062;34.834;2023-11-19T04:54:07;100063.91;;;24.56;50.02
75938;BME280;64615;32.062;34.834;2023-11-19T04:56:34;100065.53;;;24.57;50.38
75938;BME280;64615;32.062;34.834;2023-11-19T04:59:01;100073.69;;;24.57;50.44
75938;BME280;64615;32.062;34.834;2023-11-19T05:01:27;100070.97;;;24.57;50.33
75938;BME280;64615;32.062;34.834;2023-11-19T05:03:53;100092.19;;;24.60;50.30
75938;BME280;64615;32.062;34.834;2023-11-19T05:06:18;100079.69;;;24.59;50.38
75938;BME280;64615;32.062;34.834;2023-11-19T05:08:44;100101.47;;;24.59;49.91
75938;BME280;64615;32.062;34.834;2023-11-19T05:11:10;100101.16;;;24.60;50.06
75938;BME280;64615;32.062;34.834;2023-11-19T05:13:38;100099.25;;;24.61;49.96
75938;BME280;64615;32.062;34.834;2023-11-19T05:16:03;100086.97;;;24.63;49.88
75938;BME280;64615;32.062;34.834;2023-11-19T05:18:29;100097.88;;;24.63;50.04
75938;BME280;64615;32.062;34.834;2023-11-19T05:20:55;100099.50;;;24.64;50.01
75938;BME280;64615;32.062;34.834;2023-11-19T05:23:20;100092.94;;;24.65;49.34
75938;BME280;64615;32.062;34.834;2023-11-19T05:25:46;100100.81;;;24.67;49.43
75938;BME280;64615;32.062;34.834;2023-11-19T05:28:13;100104.06;;;24.69;49.27
75938;BME280;64615;32.062;34.834;2023-11-19T05:30:39;100087.16;;;24.72;49.24
75938;BME280;64615;32.062;34.834;2023-11-19T05:33:05;100085.25;;;24.72;49.48
75938;BME280;64615;32.062;34.834;2023-11-19T05:35:31;100088.50;;;24.74;49.12
75938;BME280;64615;32.062;34.834;2023-11-19T05:37:57;100098.31;;;24.75;49.33
75938;BME280;64615;32.062;34.834;2023-11-19T05:40:23;100092.56;;;24.77;49.26
75938;BME280;64615;32.062;34.834;2023-11-19T05:42:49;100092.56;;;24.77;48.90
75938;BME280;64615;32.062;34.834;2023-11-19T05:45:14;100109.69;;;24.77;49.06
75938;BME280;64615;32.062;34.834;2023-11-19T05:47:40;100108.88;;;24.77;49.04
75938;BME280;64615;32.062;34.834;2023-11-19T05:50:06;100091.75;;;24.76;48.91
75938;BME280;64615;32.062;34.834;2023-11-19T05:52:33;100087.91;;;24.77;48.60
75938;BME280;64615;32.062;34.834;2023-11-19T05:55:02;100110.25;;;24.79;48.91
75938;BME280;64615;32.062;34.834;2023-11-19T05:57:30;100093.59;;;24.81;48.58
75938;BME280;64615;32.062;34.834;2023-11-19T05:59:56;100104.19;;;24.82;48.89
75938;BME280;64615;32.062;34.834;2023-11-19T06:02:22;100100.38;;;24.83;48.69
75938;BME280;64615;32.062;34.834;2023-11-19T06:04:47;100090.03;;;24.85;48.75
75938;BME280;64615;32.062;34.834;2023-11-19T06:07:14;100105.56;;;24.85;48.64
75938;BME280;64615;32.062;34.834;2023-11-19T06:09:40;100102.03;;;24.84;48.89
75938;BME280;64615;32.062;34.834;2023-11-19T06:12:06;100072.94;;;24.80;49.19
75938;BME280;64615;32.062;34.834;2023-11-19T06:14:32;100077.25;;;24.81;49.66
75938;BME280;64615;32.062;34.834;2023-11-19T06:16:58;100055.47;;;24.81;49.57
75938;BME280;64615;32.062;34.834;2023-11-19T06:19:25;100057.41;;;24.80;49.79
75938;BME280;64615;32.062;34.834;2023-11-19T06:21:50;100067.19;;;24.81;49.69
75938;BME280;64615;32.062;34.834;2023-11-19T06:24:16;100093.59;;;24.81;49.67
75938;BME280;64615;32.062;34.834;2023-11-19T06:26:41;100079.97;;;24.81;49.96
75938;BME280;64615;32.062;34.834;2023-11-19T06:29:07;100066.69;;;24.79;49.96
75938;BME280;64615;32.062;34.834;2023-11-19T06:31:33;100064.25;;;24.78;49.89
75938;BME280;64615;32.062;34.834;2023-11-19T06:33:58;100056.88;;;24.78;50.13
75938;BME280;64615;32.062;34.834;2023-11-19T06:36:24;100074.03;;;24.79;50.54
75938;BME280;64615;32.062;34.834;2023-11-19T06:38:49;100130.09;;;24.80;50.57
75938;BME280;64615;32.062;34.834;2023-11-19T06:41:15;100163.59;;;24.80;50.74
75938;BME280;64615;32.062;34.834;2023-11-19T06:43:41;100180.72;;;24.81;50.89
75938;BME280;64615;32.062;34.834;2023-11-19T06:46:17;100151.88;;;24.80;50.78
75938;BME280;64615;32.062;34.834;2023-11-19T06:48:43;100141.81;;;24.80;51.07
75938;BME280;64615;32.062;34.834;2023-11-19T06:51:10;100127.38;;;24.80;50.88
75938;BME280;64615;32.062;34.834;2023-11-19T06:53:35;100145.03;;;24.82;51.15
75938;BME280;64615;32.062;34.834;2023-11-19T06:56:02;100200.31;;;24.83;50.97
75938;BME280;64615;32.062;34.834;2023-11-19T06:58:32;100199.50;;;24.82;51.48
75938;BME280;64615;32.062;34.834;2023-11-19T07:00:59;100181.53;;;24.81;53.14
75938;BME280;64615;32.062;34.834;2023-11-19T07:03:25;100143.72;;;24.80;52.42
75938;BME280;64615;32.062;34.834;2023-11-19T07:05:51;100143.41;;;24.81;52.25
75938;BME280;64615;32.062;34.834;2023-11-19T07:08:17;100129.53;;;24.83;53.43
75938;BME280;64615;32.062;34.834;2023-11-19T07:10:42;100110.19;;;24.84;53.10
75938;BME280;64615;32.062;34.834;2023-11-19T07:13:08;100144.47;;;24.85;53.29
75938;BME280;64615;32.062;34.834;2023-11-19T07:15:33;100146.41;;;24.85;52.70
75938;BME280;64615;32.062;34.834;2023-11-19T07:17:59;100149.94;;;24.85;53.10
75938;BME280;64615;32.062;34.834;2023-11-19T07:20:25;100156.97;;;24.86;53.02
75938;BME280;64615;32.062;34.834;2023-11-19T07:22:52;100156.97;;;24.86;53.86
75938;BME280;64615;32.062;34.834;2023-11-19T07:25:18;100160.81;;;24.85;53.99
75938;BME280;64615;32.062;34.834;2023-11-19T07:27:43;100152.94;;;24.84;54.12
75938;BME280;64615;32.062;34.834;2023-11-19T07:30:09;100165.16;;;24.86;54.16
75938;BME280;64615;32.062;34.834;2023-11-19T07:32:35;100154.25;;;24.86;53.91
75938;BME280;64615;32.062;34.834;2023-11-19T07:35:01;100152.66;;;24.85;54.09
75938;BME280;64615;32.062;34.834;2023-11-19T07:37:26;100149.13;;;24.85;54.06
75938;BME280;64615;32.062;34.834;2023-11-19T07:39:52;100154.84;;;24.83;54.39
75938;BME280;64615;32.062;34.834;2023-11-19T07:42:17;100143.94;;;24.83;54.42
75938;BME280;64615;32.062;34.834;2023-11-19T07:44:43;100128.72;;;24.82;54.33
75938;BME280;64615;32.062;34.834;2023-11-19T07:47:09;100127.88;;;24.82;54.39
75938;BME280;64615;32.062;34.834;2023-11-19T07:49:35;100127.88;;;24.82;54.50
75938;BME280;64615;32.062;34.834;2023-11-19T07:52:01;100125.16;;;24.82;54.55
75938;BME280;64615;32.062;34.834;2023-11-19T07:54:28;100124.06;;;24.83;54.42
75938;BME280;64615;32.062;34.834;2023-11-19T07:56:54;100121.34;;;24.83;55.01
75938;BME280;64615;32.062;34.834;2023-11-19T07:59:19;100111.81;;;24.85;54.97
75938;BME280;64615;32.062;34.834;2023-11-19T08:01:45;100100.09;;;24.85;54.70
75938;BME280;64615;32.062;34.834;2023-11-19T08:04:10;100090.03;;;24.85;54.89
75938;BME280;64615;32.062;34.834;2023-11-19T08:06:36;100094.34;;;24.86;54.59
75938;BME280;64615;32.062;34.834;2023-11-19T08:09:02;100086.19;;;24.86;54.87
75938;BME280;64615;32.062;34.834;2023-11-19T08:11:28;100074.22;;;24.87;54.87
75938;BME280;64615;32.062;34.834;2023-11-19T08:13:53;100063.34;;;24.87;54.46
75938;BME280;64615;32.062;34.834;2023-11-19T08:16:19;100050.53;;;24.88;55.18
75938;BME280;64615;32.062;34.834;2023-11-19T08:18:44;100059.53;;;24.88;55.23
75938;BME280;64615;32.062;34.834;2023-11-19T08:21:10;100044.00;;;24.89;54.87
75938;BME280;64615;32.062;34.834;2023-11-19T08:23:36;100086.47;;;24.90;55.09
75938;BME280;64615;32.062;34.834;2023-11-19T08:26:02;100119.16;;;24.90;56.18
75938;BME280;64615;32.062;34.834;2023-11-19T08:28:28;100138.22;;;24.90;56.35
75938;BME280;64615;32.062;34.834;2023-11-19T08:30:53;100087.84;;;24.87;55.47
75938;BME280;64615;32.062;34.834;2023-11-19T08:33:19;100090.28;;;24.89;55.66
75938;BME280;64615;32.062;34.834;2023-11-19T08:35:47;100110.16;;;24.89;55.59
75938;BME280;64615;32.062;34.834;2023-11-19T08:38:13;100097.38;;;24.90;56.51
75938;BME280;64615;32.062;34.834;2023-11-19T08:40:39;100089.19;;;24.90;55.76
75938;BME280;64615;32.062;34.834;2023-11-19T08:43:04;100086.75;;;24.88;55.95
75938;BME280;64615;32.062;34.834;2023-11-19T08:45:30;100098.72;;;24.87;55.98
75938;BME280;64615;32.062;34.834;2023-11-19T08:47:57;100091.63;;;24.86;56.17
75938;BME280;64615;32.062;34.834;2023-11-19T08:50:23;100088.66;;;24.88;55.61
75938;BME280;64615;32.062;34.834;2023-11-19T08:52:49;100092.44;;;24.87;55.54
75938;BME280;64615;32.062;34.834;2023-11-19T08:55:14;100088.91;;;24.86;55.12
75938;BME280;64615;32.062;34.834;2023-11-19T08:57:40;100076.97;;;24.87;55.52
75938;BME280;64615;32.062;34.834;2023-11-19T09:00:07;100069.06;;;24.86;55.60
75938;BME280;64615;32.062;34.834;2023-11-19T09:02:34;100076.69;;;24.84;55.58
75938;BME280;64615;32.062;34.834;2023-11-19T09:05:01;100080.75;;;24.86;55.74
75938;BME280;64615;32.062;34.834;2023-11-19T09:07:27;100074.50;;;24.86;55.49
75938;BME280;64615;32.062;34.834;2023-11-19T09:09:52;100064.41;;;24.86;55.19
75938;BME280;64615;32.062;34.834;2023-11-19T09:12:18;100052.19;;;24.84;55.37
75938;BME280;64615;32.062;34.834;2023-11-19T09:14:43;100043.22;;;24.83;55.69
75938;BME280;64615;32.062;34.834;2023-11-19T09:17:11;100036.16;;;24.82;55.59
75938;BME280;64615;32.062;34.834;2023-11-19T09:19:36;100034.22;;;24.83;55.49
75938;BME280;64615;32.062;34.834;2023-11-19T09:22:02;100027.97;;;24.82;55.27
75938;BME280;64615;32.062;34.834;2023-11-19T09:24:28;100020.63;;;24.83;55.20
75938;BME280;64615;32.062;34.834;2023-11-19T09:26:53;100012.75;;;24.81;55.83
75938;BME280;64615;32.062;34.834;2023-11-19T09:29:20;100005.38;;;24.82;55.54
75938;BME280;64615;32.062;34.834;2023-11-19T09:31:46;99990.69;;;24.83;55.57
75938;BME280;64615;32.062;34.834;2023-11-19T09:34:12;99980.88;;;24.82;56.03
75938;BME280;64615;32.062;34.834;2023-11-19T09:36:38;99976.25;;;24.82;55.44
75938;BME280;64615;32.062;34.834;2023-11-19T09:39:04;99970.81;;;24.82;55.48
75938;BME280;64615;32.062;34.834;2023-11-19T09:41:33;99942.50;;;24.83;55.42
75938;BME280;64615;32.062;34.834;2023-11-19T09:44:00;99942.78;;;24.82;55.51
75938;BME280;64615;32.062;34.834;2023-11-19T09:46:26;99944.13;;;24.84;56.07
75938;BME280;64615;32.062;34.834;2023-11-19T09:48:55;99954.19;;;24.84;55.65
75938;BME280;64615;32.062;34.834;2023-11-19T09:51:21;99962.34;;;24.84;55.73
75938;BME280;64615;32.062;34.834;2023-11-19T09:53:50;99968.09;;;24.82;56.08
75938;BME280;64615;32.062;34.834;2023-11-19T09:56:16;99962.91;;;24.81;55.55
75938;BME280;64615;32.062;34.834;2023-11-19T09:58:44;99952.03;;;24.81;55.56
75938;BME280;64615;32.062;34.834;2023-11-19T10:01:10;99924.81;;;24.81;55.69
75938;BME280;64615;32.062;34.834;2023-11-19T10:03:38;99920.50;;;24.80;55.79
75938;BME280;64615;32.062;34.834;2023-11-19T10:06:08;99925.94;;;24.80;55.67
75938;BME280;64615;32.062;34.834;2023-11-19T10:08:37;99896.28;;;24.78;56.24
75938;BME280;64615;32.062;34.834;2023-11-19T10:11:05;99963.53;;;24.78;55.82
75938;BME280;64615;32.062;34.834;2023-11-19T10:13:31;99975.22;;;24.78;56.24
75938;BME280;64615;32.062;34.834;2023-11-19T10:15:57;99974.13;;;24.79;56.07
75938;BME280;64615;32.062;34.834;2023-11-19T10:18:26;99962.69;;;24.77;55.83
75938;BME280;64615;32.062;34.834;2023-11-19T10:20:52;99979.03;;;24.77;56.30
75938;BME280;64615;32.062;34.834;2023-11-19T10:23:18;99983.66;;;24.77;55.89
75938;BME280;64615;32.062;34.834;2023-11-19T10:25:43;99980.13;;;24.76;55.94
75938;BME280;64615;32.062;34.834;2023-11-19T10:28:09;99994.56;;;24.77;55.96
75938;BME280;64615;32.062;34.834;2023-11-19T10:30:35;99994.28;;;24.78;55.81
75938;BME280;64615;32.062;34.834;2023-11-19T10:33:05;99991.84;;;24.77;55.70
75938;BME280;64615;32.062;34.834;2023-11-19T10:35:34;99980.13;;;24.76;55.65
75938;BME280;64615;32.062;34.834;2023-11-19T10:38:01;100000.00;;;24.77;56.27
75938;BME280;64615;32.062;34.834;2023-11-19T10:40:39;99984.47;;;24.77;55.70
75938;BME280;64615;32.062;34.834;2023-11-19T10:43:05;99992.94;;;24.76;55.70
75938;BME280;64615;32.062;34.834;2023-11-19T10:45:33;99991.84;;;24.77;56.17
75938;BME280;64615;32.062;34.834;2023-11-19T10:47:59;99993.25;;;24.74;55.92
75938;BME280;64615;32.062;34.834;2023-11-19T10:50:26;100000.31;;;24.75;56.13
75938;BME280;64615;32.062;34.834;2023-11-19T10:52:56;100014.72;;;24.76;55.79
75938;BME280;64615;32.062;34.834;2023-11-19T10:55:27;99999.50;;;24.75;55.82
75938;BME280;64615;32.062;34.834;2023-11-19T10:57:59;99995.97;;;24.74;56.06
75938;BME280;64615;32.062;34.834;2023-11-19T11:00:25;99996.25;;;24.73;55.88
75938;BME280;64615;32.062;34.834;2023-11-19T11:02:55;99992.44;;;24.74;55.77
75938;BME280;64615;32.062;34.834;2023-11-19T11:05:22;99977.47;;;24.71;55.84
75938;BME280;64615;32.062;34.834;2023-11-19T11:07:49;99985.63;;;24.71;56.31
75938;BME280;64615;32.062;34.834;2023-11-19T11:10:18;99988.34;;;24.71;56.20
75938;BME280;64615;32.062;34.834;2023-11-19T11:12:47;99974.75;;;24.71;55.81
75938;BME280;64615;32.062;34.834;2023-11-19T11:15:17;99975.56;;;24.72;56.22
75938;BME280;64615;32.062;34.834;2023-11-19T11:17:44;99971.22;;;24.71;55.66
75938;BME280;64615;32.062;34.834;2023-11-19T11:20:11;99961.44;;;24.70;56.04
75938;BME280;64615;32.062;34.834;2023-11-19T11:25:50;99959.53;;;24.70;56.32
75938;BME280;64615;32.062;34.834;2023-11-19T11:28:41;99968.50;;;24.71;56.24
75938;BME280;64615;32.062;34.834;2023-11-19T11:31:20;99974.75;;;24.71;55.72
75938;BME280;64615;32.062;34.834;2023-11-19T11:39:35;99938.88;;;24.69;56.22
75938;BME280;64615;32.062;34.834;2023-11-19T11:45:10;99959.53;;;24.70;55.96
75938;BME280;64615;32.062;34.834;2023-11-19T11:55:36;100025.97;;;24.69;56.22
75938;BME280;64615;32.062;34.834;2023-11-19T11:58:06;100010.72;;;24.68;55.83
75938;BME280;64615;32.062;34.834;2023-11-19T12:00:33;99999.31;;;24.66;56.43
75938;BME280;64615;32.062;34.834;2023-11-19T12:03:04;99999.31;;;24.66;56.33
75938;BME280;64615;32.062;34.834;2023-11-19T12:05:30;99992.22;;;24.65;56.11
75938;BME280;64615;32.062;34.834;2023-11-19T12:07:59;100003.13;;;24.65;56.12
75938;BME280;64615;32.062;34.834;2023-11-19T12:10:28;99990.63;;;24.64;55.99
75938;BME280;64615;32.062;34.834;2023-11-19T12:13:00;99981.94;;;24.62;55.90
75938;BME280;64615;32.062;34.834;2023-11-19T12:15:27;99990.09;;;24.62;56.02
75938;BME280;64615;32.062;34.834;2023-11-19T12:17:54;99990.91;;;24.63;55.62
75938;BME280;64615;32.062;34.834;2023-11-19T12:20:22;99993.91;;;24.61;55.83
75938;BME280;64615;32.062;34.834;2023-11-19T12:22:48;99999.09;;;24.63;55.56
75938;BME280;64615;32.062;34.834;2023-11-19T12:25:15;99991.19;;;24.61;55.83
75938;BME280;64615;32.062;34.834;2023-11-19T12:27:51;99984.13;;;24.60;55.93
75938;BME280;64615;32.062;34.834;2023-11-19T12:30:22;99968.63;;;24.61;55.99
75938;BME280;64615;32.062;34.834;2023-11-19T12:32:49;99966.19;;;24.59;55.70
75938;BME280;64615;32.062;34.834;2023-11-19T12:35:14;99964.28;;;24.60;55.60
75938;BME280;64615;32.062;34.834;2023-11-19T12:37:48;99961.78;;;24.63;55.45
75938;BME280;64615;32.062;34.834;2023-11-19T12:42:41;99957.16;;;24.64;55.72
75938;BME280;64615;32.062;34.834;2023-11-19T12:45:07;99952.53;;;24.64;55.82
75938;BME280;64615;32.062;34.834;2023-11-19T12:47:37;99961.50;;;24.65;55.89
75938;BME280;64615;32.062;34.834;2023-11-19T12:50:03;99966.13;;;24.64;55.67
75938;BME280;64615;32.062;34.834;2023-11-19T12:52:30;99969.69;;;24.65;55.50
75938;BME280;64615;32.062;34.834;2023-11-19T12:54:55;99957.97;;;24.64;55.69
75938;BME280;64615;32.062;34.834;2023-11-19T12:57:38;99948.19;;;24.63;55.46
75938;BME280;64615;32.062;34.834;2023-11-19T13:00:04;99930.50;;;24.61;55.48
75938;BME280;64615;32.062;34.834;2023-11-19T13:02:50;99927.78;;;24.61;55.48
75938;BME280;64615;32.062;34.834;2023-11-19T13:05:30;99921.53;;;24.60;55.62